sensor_id;sensor_type;location;lat;lon;timestamp;pressure;altitude;pressure_sealevel;temperature;humidity
63447;BME280;49577;49.872;6.190;2023-04-22T00:00:57;98714.11;;;7.54;77.72
63447;BME280;49577;49.872;6.190;2023-04-22T00:03:23;98711.96;;;7.55;77.65
63447;BME280;49577;49.872;6.190;2023-04-22T00:05:48;98708.59;;;7.56;77.57
63447;BME280;49577;49.872;6.190;2023-04-22T00:08:13;98708.50;;;7.57;77.86
63447;BME280;49577;49.872;6.190;2023-04-22T00:10:39;98704.73;;;7.59;78.25
63447;BME280;49577;49.872;6.190;2023-04-22T00:13:04;98704.73;;;7.59;78.42
63447;BME280;49577;49.872;6.190;2023-04-22T00:15:29;98704.53;;;7.62;78.45
63447;BME280;49577;49.872;6.190;2023-04-22T00:17:57;98700.61;;;7.66;78.47
63447;BME280;49577;49.872;6.190;2023-04-22T00:20:23;98700.48;;;7.71;78.18
63447;BME280;49577;49.872;6.190;2023-04-22T00:22:48;98702.34;;;7.74;78.10
63447;BME280;49577;49.872;6.190;2023-04-22T00:25:14;98695.92;;;7.77;77.98
63447;BME280;49577;49.872;6.190;2023-04-22T00:27:40;98690.97;;;7.75;77.76
63447;BME280;49577;49.872;6.190;2023-04-22T00:30:06;98688.16;;;7.73;77.91
63447;BME280;49577;49.872;6.190;2023-04-22T00:32:31;98684.14;;;7.71;77.92
63447;BME280;49577;49.872;6.190;2023-04-22T00:34:56;98680.64;;;7.69;78.20
63447;BME280;49577;49.872;6.190;2023-04-22T00:37:23;98678.31;;;7.65;78.18
63447;BME280;49577;49.872;6.190;2023-04-22T00:39:48;98676.42;;;7.59;78.36
63447;BME280;49577;49.872;6.190;2023-04-22T00:42:15;98683.27;;;7.55;78.68
63447;BME280;49577;49.872;6.190;2023-04-22T00:44:41;98682.09;;;7.52;79.01
63447;BME280;49577;49.872;6.190;2023-04-22T00:47:07;98679.70;;;7.51;79.19
63447;BME280;49577;49.872;6.190;2023-04-22T00:49:34;98674.86;;;7.51;79.26
63447;BME280;49577;49.872;6.190;2023-04-22T00:51:59;98671.65;;;7.49;79.23
63447;BME280;49577;49.872;6.190;2023-04-22T00:54:25;98673.88;;;7.47;79.19
63447;BME280;49577;49.872;6.190;2023-04-22T00:56:50;98673.10;;;7.46;79.35
63447;BME280;49577;49.872;6.190;2023-04-22T00:59:16;98675.28;;;7.44;79.29
63447;BME280;49577;49.872;6.190;2023-04-22T01:01:42;98679.84;;;7.44;79.44
63447;BME280;49577;49.872;6.190;2023-04-22T01:04:07;98675.80;;;7.42;79.36
63447;BME280;49577;49.872;6.190;2023-04-22T01:06:35;98676.39;;;7.41;79.36
63447;BME280;49577;49.872;6.190;2023-04-22T01:09:01;98675.73;;;7.40;79.52
63447;BME280;49577;49.872;6.190;2023-04-22T01:11:27;98673.16;;;7.40;79.57
63447;BME280;49577;49.872;6.190;2023-04-22T01:13:52;98672.29;;;7.43;79.69
63447;BME280;49577;49.872;6.190;2023-04-22T01:16:17;98668.63;;;7.45;79.78
63447;BME280;49577;49.872;6.190;2023-04-22T01:18:43;98668.83;;;7.47;79.61
63447;BME280;49577;49.872;6.190;2023-04-22T01:21:08;98663.70;;;7.49;79.80
63447;BME280;49577;49.872;6.190;2023-04-22T01:23:33;98665.83;;;7.48;79.85
63447;BME280;49577;49.872;6.190;2023-04-22T01:25:59;98662.72;;;7.48;79.99
63447;BME280;49577;49.872;6.190;2023-04-22T01:28:24;98659.67;;;7.47;80.22
63447;BME280;49577;49.872;6.190;2023-04-22T01:30:50;98656.05;;;7.46;80.37
63447;BME280;49577;49.872;6.190;2023-04-22T01:33:17;98659.91;;;7.46;80.33
63447;BME280;49577;49.872;6.190;2023-04-22T01:35:44;98660.52;;;7.44;80.19
63447;BME280;49577;49.872;6.190;2023-04-22T01:38:11;98661.14;;;7.43;80.22
63447;BME280;49577;49.872;6.190;2023-04-22T01:40:37;98658.59;;;7.39;80.01
63447;BME280;49577;49.872;6.190;2023-04-22T01:43:03;98657.16;;;7.31;79.98
63447;BME280;49577;49.872;6.190;2023-04-22T01:45:28;98661.29;;;7.26;80.14
63447;BME280;49577;49.872;6.190;2023-04-22T01:47:54;98660.02;;;7.22;80.40
63447;BME280;49577;49.872;6.190;2023-04-22T01:50:21;98658.11;;;7.19;80.47
63447;BME280;49577;49.872;6.190;2023-04-22T01:52:46;98659.64;;;7.17;80.53
63447;BME280;49577;49.872;6.190;2023-04-22T01:55:12;98658.96;;;7.14;80.39
63447;BME280;49577;49.872;6.190;2023-04-22T01:57:37;98660.98;;;7.13;80.68
63447;BME280;49577;49.872;6.190;2023-04-22T02:00:03;98657.48;;;7.13;80.77
63447;BME280;49577;49.872;6.190;2023-04-22T02:02:35;98654.48;;;7.14;80.65
63447;BME280;49577;49.872;6.190;2023-04-22T02:05:00;98659.73;;;7.13;80.46
63447;BME280;49577;49.872;6.190;2023-04-22T02:07:25;98661.34;;;7.13;80.59
63447;BME280;49577;49.872;6.190;2023-04-22T02:09:51;98661.05;;;7.14;80.92
63447;BME280;49577;49.872;6.190;2023-04-22T02:12:16;98663.29;;;7.15;80.73
63447;BME280;49577;49.872;6.190;2023-04-22T02:14:41;98671.59;;;7.09;80.33
63447;BME280;49577;49.872;6.190;2023-04-22T02:17:07;98670.20;;;7.01;80.27
63447;BME280;49577;49.872;6.190;2023-04-22T02:19:32;98669.60;;;6.94;80.34
63447;BME280;49577;49.872;6.190;2023-04-22T02:21:58;98674.25;;;6.89;80.61
63447;BME280;49577;49.872;6.190;2023-04-22T02:24:23;98676.04;;;6.89;80.83
63447;BME280;49577;49.872;6.190;2023-04-22T02:26:48;98678.88;;;6.91;80.95
63447;BME280;49577;49.872;6.190;2023-04-22T02:29:14;98679.38;;;6.94;80.86
63447;BME280;49577;49.872;6.190;2023-04-22T02:31:40;98680.48;;;6.95;80.67
63447;BME280;49577;49.872;6.190;2023-04-22T02:34:05;98680.52;;;6.95;80.52
63447;BME280;49577;49.872;6.190;2023-04-22T02:36:31;98680.60;;;6.93;80.42
63447;BME280;49577;49.872;6.190;2023-04-22T02:38:57;98678.64;;;6.91;80.38
63447;BME280;49577;49.872;6.190;2023-04-22T02:41:22;98678.04;;;6.90;80.61
63447;BME280;49577;49.872;6.190;2023-04-22T02:43:48;98677.30;;;6.88;80.64
63447;BME280;49577;49.872;6.190;2023-04-22T02:46:14;98676.48;;;6.84;80.86
63447;BME280;49577;49.872;6.190;2023-04-22T02:48:41;98677.70;;;6.81;80.86
63447;BME280;49577;49.872;6.190;2023-04-22T02:51:06;98675.80;;;6.75;80.75
63447;BME280;49577;49.872;6.190;2023-04-22T02:53:32;98672.14;;;6.70;80.99
63447;BME280;49577;49.872;6.190;2023-04-22T02:55:57;98664.77;;;6.66;81.14
63447;BME280;49577;49.872;6.190;2023-04-22T02:58:23;98660.14;;;6.62;81.29
63447;BME280;49577;49.872;6.190;2023-04-22T03:00:48;98659.27;;;6.59;81.36
63447;BME280;49577;49.872;6.190;2023-04-22T03:03:14;98659.08;;;6.60;81.48
63447;BME280;49577;49.872;6.190;2023-04-22T03:05:39;98655.45;;;6.59;81.61
63447;BME280;49577;49.872;6.190;2023-04-22T03:08:04;98655.02;;;6.58;81.53
63447;BME280;49577;49.872;6.190;2023-04-22T03:10:30;98654.16;;;6.55;81.41
63447;BME280;49577;49.872;6.190;2023-04-22T03:12:56;98657.63;;;6.50;81.59
63447;BME280;49577;49.872;6.190;2023-04-22T03:15:22;98652.39;;;6.47;81.91
63447;BME280;49577;49.872;6.190;2023-04-22T03:17:47;98645.86;;;6.46;81.84
63447;BME280;49577;49.872;6.190;2023-04-22T03:20:12;98643.10;;;6.46;81.90
63447;BME280;49577;49.872;6.190;2023-04-22T03:22:38;98642.94;;;6.46;81.74
63447;BME280;49577;49.872;6.190;2023-04-22T03:25:03;98638.09;;;6.46;81.71
63447;BME280;49577;49.872;6.190;2023-04-22T03:27:29;98638.80;;;6.45;81.80
63447;BME280;49577;49.872;6.190;2023-04-22T03:29:54;98635.55;;;6.45;81.89
63447;BME280;49577;49.872;6.190;2023-04-22T03:32:20;98633.13;;;6.47;81.93
63447;BME280;49577;49.872;6.190;2023-04-22T03:34:45;98628.64;;;6.50;81.89
63447;BME280;49577;49.872;6.190;2023-04-22T03:37:10;98629.70;;;6.49;81.59
63447;BME280;49577;49.872;6.190;2023-04-22T03:39:35;98620.60;;;6.48;81.75
63447;BME280;49577;49.872;6.190;2023-04-22T03:42:01;98615.09;;;6.44;81.66
63447;BME280;49577;49.872;6.190;2023-04-22T03:44:26;98614.45;;;6.41;81.88
63447;BME280;49577;49.872;6.190;2023-04-22T03:46:51;98617.39;;;6.41;82.25
63447;BME280;49577;49.872;6.190;2023-04-22T03:49:17;98615.48;;;6.44;82.40
63447;BME280;49577;49.872;6.190;2023-04-22T03:51:42;98618.79;;;6.46;82.57
63447;BME280;49577;49.872;6.190;2023-04-22T03:54:07;98616.89;;;6.49;82.62
63447;BME280;49577;49.872;6.190;2023-04-22T03:56:33;98615.37;;;6.51;82.57
63447;BME280;49577;49.872;6.190;2023-04-22T03:58:58;98615.48;;;6.52;82.39
63447;BME280;49577;49.872;6.190;2023-04-22T04:01:23;98616.27;;;6.51;82.37
63447;BME280;49577;49.872;6.190;2023-04-22T04:03:49;98616.91;;;6.49;82.43
63447;BME280;49577;49.872;6.190;2023-04-22T04:06:14;98617.93;;;6.46;82.62
63447;BME280;49577;49.872;6.190;2023-04-22T04:08:39;98622.73;;;6.44;82.90
63447;BME280;49577;49.872;6.190;2023-04-22T04:11:05;98627.80;;;6.44;82.84
63447;BME280;49577;49.872;6.190;2023-04-22T04:13:30;98631.93;;;6.44;82.92
63447;BME280;49577;49.872;6.190;2023-04-22T04:15:57;98631.80;;;6.44;82.88
63447;BME280;49577;49.872;6.190;2023-04-22T04:18:24;98623.16;;;6.43;82.66
63447;BME280;49577;49.872;6.190;2023-04-22T04:20:49;98624.95;;;6.39;82.67
63447;BME280;49577;49.872;6.190;2023-04-22T04:23:15;98623.23;;;6.36;82.61
63447;BME280;49577;49.872;6.190;2023-04-22T04:25:40;98622.27;;;6.32;82.60
63447;BME280;49577;49.872;6.190;2023-04-22T04:28:09;98630.38;;;6.29;82.58
63447;BME280;49577;49.872;6.190;2023-04-22T04:30:36;98634.90;;;6.27;82.60
63447;BME280;49577;49.872;6.190;2023-04-22T04:33:01;98637.47;;;6.24;82.65
63447;BME280;49577;49.872;6.190;2023-04-22T04:35:31;98642.95;;;6.23;82.75
63447;BME280;49577;49.872;6.190;2023-04-22T04:37:59;98641.82;;;6.24;82.90
63447;BME280;49577;49.872;6.190;2023-04-22T04:40:24;98633.61;;;6.25;82.91
63447;BME280;49577;49.872;6.190;2023-04-22T04:42:50;98637.80;;;6.27;82.88
63447;BME280;49577;49.872;6.190;2023-04-22T04:45:17;98637.71;;;6.29;82.84
63447;BME280;49577;49.872;6.190;2023-04-22T04:47:43;98631.05;;;6.30;82.86
63447;BME280;49577;49.872;6.190;2023-04-22T04:50:09;98630.09;;;6.28;82.81
63447;BME280;49577;49.872;6.190;2023-04-22T04:52:35;98631.36;;;6.27;82.80
63447;BME280;49577;49.872;6.190;2023-04-22T04:55:00;98617.94;;;6.26;82.79
63447;BME280;49577;49.872;6.190;2023-04-22T04:57:25;98616.95;;;6.28;83.08
63447;BME280;49577;49.872;6.190;2023-04-22T04:59:51;98617.82;;;6.34;83.15
63447;BME280;49577;49.872;6.190;2023-04-22T05:02:16;98614.12;;;6.38;82.89
63447;BME280;49577;49.872;6.190;2023-04-22T05:04:41;98622.73;;;6.41;83.03
63447;BME280;49577;49.872;6.190;2023-04-22T05:07:07;98625.45;;;6.57;83.15
63447;BME280;49577;49.872;6.190;2023-04-22T05:09:32;98630.36;;;6.72;82.86
63447;BME280;49577;49.872;6.190;2023-04-22T05:12:02;98628.64;;;6.86;82.54
63447;BME280;49577;49.872;6.190;2023-04-22T05:14:27;98622.89;;;7.08;82.29
63447;BME280;49577;49.872;6.190;2023-04-22T05:16:52;98627.34;;;7.33;81.80
63447;BME280;49577;49.872;6.190;2023-04-22T05:19:18;98627.90;;;7.62;81.46
63447;BME280;49577;49.872;6.190;2023-04-22T05:21:43;98633.25;;;7.96;80.80
63447;BME280;49577;49.872;6.190;2023-04-22T05:24:08;98631.36;;;8.34;79.67
63447;BME280;49577;49.872;6.190;2023-04-22T05:26:34;98632.80;;;8.98;79.12
63447;BME280;49577;49.872;6.190;2023-04-22T05:28:59;98633.95;;;9.80;78.31
63447;BME280;49577;49.872;6.190;2023-04-22T05:31:24;98630.88;;;10.68;76.57
63447;BME280;49577;49.872;6.190;2023-04-22T05:33:50;98629.21;;;11.41;74.10
63447;BME280;49577;49.872;6.190;2023-04-22T05:36:15;98629.20;;;11.69;72.42
63447;BME280;49577;49.872;6.190;2023-04-22T05:38:40;98629.67;;;11.63;70.97
63447;BME280;49577;49.872;6.190;2023-04-22T05:41:06;98633.83;;;11.53;70.81
63447;BME280;49577;49.872;6.190;2023-04-22T05:43:31;98628.09;;;11.74;70.36
63447;BME280;49577;49.872;6.190;2023-04-22T05:45:56;98627.42;;;11.97;69.52
63447;BME280;49577;49.872;6.190;2023-04-22T05:48:21;98624.20;;;11.94;69.17
63447;BME280;49577;49.872;6.190;2023-04-22T05:50:47;98628.99;;;12.35;68.72
63447;BME280;49577;49.872;6.190;2023-04-22T05:53:12;98634.99;;;12.60;67.88
63447;BME280;49577;49.872;6.190;2023-04-22T05:55:37;98636.05;;;12.78;67.29
63447;BME280;49577;49.872;6.190;2023-04-22T05:58:03;98637.02;;;13.01;66.98
63447;BME280;49577;49.872;6.190;2023-04-22T06:00:28;98641.52;;;13.08;66.37
63447;BME280;49577;49.872;6.190;2023-04-22T06:02:53;98636.23;;;13.12;65.89
63447;BME280;49577;49.872;6.190;2023-04-22T06:05:19;98643.36;;;13.31;65.35
63447;BME280;49577;49.872;6.190;2023-04-22T06:07:44;98641.56;;;13.26;64.83
63447;BME280;49577;49.872;6.190;2023-04-22T06:10:09;98642.17;;;13.40;64.97
63447;BME280;49577;49.872;6.190;2023-04-22T06:12:35;98638.95;;;13.53;64.38
63447;BME280;49577;49.872;6.190;2023-04-22T06:15:00;98641.77;;;13.41;64.09
63447;BME280;49577;49.872;6.190;2023-04-22T06:17:25;98638.19;;;13.20;64.37
63447;BME280;49577;49.872;6.190;2023-04-22T06:19:50;98632.89;;;13.10;64.85
63447;BME280;49577;49.872;6.190;2023-04-22T06:22:16;98631.23;;;13.04;65.20
63447;BME280;49577;49.872;6.190;2023-04-22T06:24:41;98624.20;;;13.00;65.24
63447;BME280;49577;49.872;6.190;2023-04-22T06:27:06;98620.77;;;13.05;65.25
63447;BME280;49577;49.872;6.190;2023-04-22T06:29:32;98624.73;;;13.22;65.15
63447;BME280;49577;49.872;6.190;2023-04-22T06:31:57;98628.06;;;13.57;65.02
63447;BME280;49577;49.872;6.190;2023-04-22T06:34:23;98622.60;;;13.89;64.01
63447;BME280;49577;49.872;6.190;2023-04-22T06:36:48;98623.75;;;14.15;64.15
63447;BME280;49577;49.872;6.190;2023-04-22T06:39:13;98620.17;;;14.55;63.20
63447;BME280;49577;49.872;6.190;2023-04-22T06:41:38;98624.19;;;15.02;62.28
63447;BME280;49577;49.872;6.190;2023-04-22T06:44:04;98617.73;;;15.44;61.47
63447;BME280;49577;49.872;6.190;2023-04-22T06:46:29;98616.48;;;15.89;60.73
63447;BME280;49577;49.872;6.190;2023-04-22T06:48:55;98619.52;;;16.46;59.44
63447;BME280;49577;49.872;6.190;2023-04-22T06:51:20;98617.61;;;16.97;58.04
63447;BME280;49577;49.872;6.190;2023-04-22T06:53:45;98616.31;;;17.44;57.04
63447;BME280;49577;49.872;6.190;2023-04-22T06:56:11;98610.67;;;17.74;55.99
63447;BME280;49577;49.872;6.190;2023-04-22T06:58:36;98606.63;;;18.14;55.35
63447;BME280;49577;49.872;6.190;2023-04-22T07:01:01;98598.41;;;19.06;53.90
63447;BME280;49577;49.872;6.190;2023-04-22T07:03:27;98596.66;;;19.91;52.93
63447;BME280;49577;49.872;6.190;2023-04-22T07:05:52;98598.16;;;20.69;50.90
63447;BME280;49577;49.872;6.190;2023-04-22T07:08:17;98600.94;;;21.23;47.89
63447;BME280;49577;49.872;6.190;2023-04-22T07:10:43;98603.91;;;21.70;47.87
63447;BME280;49577;49.872;6.190;2023-04-22T07:13:09;98594.27;;;22.08;46.91
63447;BME280;49577;49.872;6.190;2023-04-22T07:15:34;98591.80;;;22.28;44.88
63447;BME280;49577;49.872;6.190;2023-04-22T07:18:00;98584.17;;;22.18;42.77
63447;BME280;49577;49.872;6.190;2023-04-22T07:20:25;98586.76;;;22.07;42.59
63447;BME280;49577;49.872;6.190;2023-04-22T07:22:51;98588.89;;;21.59;42.74
63447;BME280;49577;49.872;6.190;2023-04-22T07:25:17;98589.71;;;21.02;42.48
63447;BME280;49577;49.872;6.190;2023-04-22T07:27:42;98595.89;;;20.29;43.03
63447;BME280;49577;49.872;6.190;2023-04-22T07:30:08;98597.23;;;19.59;44.04
63447;BME280;49577;49.872;6.190;2023-04-22T07:32:33;98592.86;;;19.06;44.71
63447;BME280;49577;49.872;6.190;2023-04-22T07:34:58;98597.19;;;18.74;45.94
63447;BME280;49577;49.872;6.190;2023-04-22T07:37:24;98600.23;;;18.67;46.71
63447;BME280;49577;49.872;6.190;2023-04-22T07:39:49;98599.00;;;18.72;46.27
63447;BME280;49577;49.872;6.190;2023-04-22T07:42:15;98601.83;;;18.62;45.94
63447;BME280;49577;49.872;6.190;2023-04-22T07:44:40;98601.34;;;18.53;45.75
63447;BME280;49577;49.872;6.190;2023-04-22T07:47:06;98602.85;;;18.47;46.17
63447;BME280;49577;49.872;6.190;2023-04-22T07:49:34;98602.02;;;18.50;46.13
63447;BME280;49577;49.872;6.190;2023-04-22T07:52:00;98598.39;;;18.52;45.90
63447;BME280;49577;49.872;6.190;2023-04-22T07:54:25;98599.35;;;18.73;45.32
63447;BME280;49577;49.872;6.190;2023-04-22T07:56:50;98595.93;;;19.21;45.11
63447;BME280;49577;49.872;6.190;2023-04-22T07:59:16;98592.62;;;19.71;44.28
63447;BME280;49577;49.872;6.190;2023-04-22T08:01:41;98587.73;;;20.27;43.18
63447;BME280;49577;49.872;6.190;2023-04-22T08:04:07;98582.92;;;21.18;42.10
63447;BME280;49577;49.872;6.190;2023-04-22T08:06:32;98586.91;;;22.13;39.80
63447;BME280;49577;49.872;6.190;2023-04-22T08:08:58;98584.27;;;22.88;38.97
63447;BME280;49577;49.872;6.190;2023-04-22T08:11:23;98586.71;;;23.53;38.20
63447;BME280;49577;49.872;6.190;2023-04-22T08:13:48;98589.63;;;24.02;37.40
63447;BME280;49577;49.872;6.190;2023-04-22T08:16:14;98594.79;;;24.23;37.06
63447;BME280;49577;49.872;6.190;2023-04-22T08:18:40;98600.56;;;24.77;35.63
63447;BME280;49577;49.872;6.190;2023-04-22T08:21:05;98603.52;;;24.90;35.10
63447;BME280;49577;49.872;6.190;2023-04-22T08:23:30;98604.95;;;24.26;34.85
63447;BME280;49577;49.872;6.190;2023-04-22T08:25:56;98611.02;;;23.21;35.00
63447;BME280;49577;49.872;6.190;2023-04-22T08:28:21;98611.59;;;22.15;36.24
63447;BME280;49577;49.872;6.190;2023-04-22T08:30:47;98614.38;;;21.37;37.33
63447;BME280;49577;49.872;6.190;2023-04-22T08:33:12;98615.69;;;20.75;38.22
63447;BME280;49577;49.872;6.190;2023-04-22T08:35:39;98618.06;;;20.25;38.88
63447;BME280;49577;49.872;6.190;2023-04-22T08:38:05;98614.36;;;19.73;39.45
63447;BME280;49577;49.872;6.190;2023-04-22T08:40:30;98621.33;;;19.54;40.48
63447;BME280;49577;49.872;6.190;2023-04-22T08:42:56;98623.55;;;19.81;40.57
63447;BME280;49577;49.872;6.190;2023-04-22T08:45:21;98621.77;;;20.39;39.67
63447;BME280;49577;49.872;6.190;2023-04-22T08:47:51;98623.22;;;20.78;38.75
63447;BME280;49577;49.872;6.190;2023-04-22T08:50:19;98625.66;;;21.10;38.88
63447;BME280;49577;49.872;6.190;2023-04-22T08:52:45;98628.99;;;21.23;38.41
63447;BME280;49577;49.872;6.190;2023-04-22T08:55:10;98621.55;;;21.06;38.30
63447;BME280;49577;49.872;6.190;2023-04-22T08:57:37;98622.61;;;21.06;38.41
63447;BME280;49577;49.872;6.190;2023-04-22T09:00:03;98622.11;;;21.15;38.75
63447;BME280;49577;49.872;6.190;2023-04-22T09:02:31;98615.73;;;21.30;38.27
63447;BME280;49577;49.872;6.190;2023-04-22T09:05:00;98612.95;;;21.41;38.29
63447;BME280;49577;49.872;6.190;2023-04-22T09:07:27;98614.41;;;21.84;37.95
63447;BME280;49577;49.872;6.190;2023-04-22T09:09:55;98610.29;;;21.97;38.29
63447;BME280;49577;49.872;6.190;2023-04-22T09:12:21;98608.86;;;22.11;38.11
63447;BME280;49577;49.872;6.190;2023-04-22T09:14:47;98610.11;;;22.00;37.70
63447;BME280;49577;49.872;6.190;2023-04-22T09:17:16;98606.91;;;21.73;37.74
63447;BME280;49577;49.872;6.190;2023-04-22T09:19:43;98602.60;;;21.39;38.19
63447;BME280;49577;49.872;6.190;2023-04-22T09:22:12;98601.38;;;21.19;38.17
63447;BME280;49577;49.872;6.190;2023-04-22T09:24:48;98598.21;;;20.93;38.44
63447;BME280;49577;49.872;6.190;2023-04-22T09:27:15;98599.08;;;20.70;39.34
63447;BME280;49577;49.872;6.190;2023-04-22T09:29:47;98596.53;;;20.49;39.76
63447;BME280;49577;49.872;6.190;2023-04-22T09:32:13;98602.91;;;20.44;40.10
63447;BME280;49577;49.872;6.190;2023-04-22T09:34:48;98603.06;;;20.34;40.04
63447;BME280;49577;49.872;6.190;2023-04-22T09:37:17;98605.91;;;20.19;40.71
63447;BME280;49577;49.872;6.190;2023-04-22T09:39:43;98601.02;;;20.02;40.81
63447;BME280;49577;49.872;6.190;2023-04-22T09:42:08;98601.75;;;19.73;41.41
63447;BME280;49577;49.872;6.190;2023-04-22T09:44:33;98605.30;;;19.59;41.85
63447;BME280;49577;49.872;6.190;2023-04-22T09:46:59;98607.84;;;19.59;41.86
63447;BME280;49577;49.872;6.190;2023-04-22T09:49:26;98602.55;;;19.68;41.90
63447;BME280;49577;49.872;6.190;2023-04-22T09:51:58;98606.17;;;19.91;41.86
63447;BME280;49577;49.872;6.190;2023-04-22T09:54:23;98604.20;;;20.01;41.14
63447;BME280;49577;49.872;6.190;2023-04-22T09:56:50;98605.13;;;20.05;41.45
63447;BME280;49577;49.872;6.190;2023-04-22T09:59:26;98598.09;;;20.21;40.96
63447;BME280;49577;49.872;6.190;2023-04-22T10:01:57;98601.67;;;20.62;40.40
63447;BME280;49577;49.872;6.190;2023-04-22T10:04:24;98608.05;;;21.26;39.69
63447;BME280;49577;49.872;6.190;2023-04-22T10:06:51;98604.41;;;22.55;38.26
63447;BME280;49577;49.872;6.190;2023-04-22T10:09:17;98602.48;;;23.11;37.36
63447;BME280;49577;49.872;6.190;2023-04-22T10:11:44;98609.39;;;22.76;37.43
63447;BME280;49577;49.872;6.190;2023-04-22T10:14:09;98609.60;;;22.22;37.85
63447;BME280;49577;49.872;6.190;2023-04-22T10:16:37;98610.95;;;21.86;38.28
63447;BME280;49577;49.872;6.190;2023-04-22T10:19:05;98615.21;;;21.49;38.98
63447;BME280;49577;49.872;6.190;2023-04-22T10:21:32;98616.27;;;21.07;39.99
63447;BME280;49577;49.872;6.190;2023-04-22T10:23:58;98614.17;;;20.60;40.52
63447;BME280;49577;49.872;6.190;2023-04-22T10:26:40;98614.50;;;20.17;41.16
63447;BME280;49577;49.872;6.190;2023-04-22T10:29:07;98613.44;;;19.85;41.68
63447;BME280;49577;49.872;6.190;2023-04-22T10:31:36;98615.47;;;19.72;42.07
63447;BME280;49577;49.872;6.190;2023-04-22T10:34:13;98619.23;;;19.61;42.41
63447;BME280;49577;49.872;6.190;2023-04-22T10:37:05;98613.47;;;19.57;42.75
63447;BME280;49577;49.872;6.190;2023-04-22T10:39:30;98617.12;;;19.66;42.86
63447;BME280;49577;49.872;6.190;2023-04-22T10:44:27;98620.52;;;19.41;42.90
63447;BME280;49577;49.872;6.190;2023-04-22T10:46:55;98620.08;;;19.28;43.39
63447;BME280;49577;49.872;6.190;2023-04-22T10:49:22;98622.44;;;19.27;43.43
63447;BME280;49577;49.872;6.190;2023-04-22T10:51:49;98616.38;;;19.33;43.58
63447;BME280;49577;49.872;6.190;2023-04-22T10:57:10;98619.70;;;19.68;43.44
63447;BME280;49577;49.872;6.190;2023-04-22T10:59:53;98618.67;;;19.71;43.33
63447;BME280;49577;49.872;6.190;2023-04-22T11:02:20;98614.71;;;19.73;43.02
63447;BME280;49577;49.872;6.190;2023-04-22T11:04:46;98619.15;;;19.65;43.27
63447;BME280;49577;49.872;6.190;2023-04-22T11:09:43;98615.89;;;19.78;43.04
63447;BME280;49577;49.872;6.190;2023-04-22T11:12:42;98612.52;;;20.04;43.00
63447;BME280;49577;49.872;6.190;2023-04-22T11:15:15;98611.27;;;20.35;43.00
63447;BME280;49577;49.872;6.190;2023-04-22T11:17:42;98614.38;;;20.83;42.08
63447;BME280;49577;49.872;6.190;2023-04-22T11:20:08;98612.84;;;21.44;41.42
63447;BME280;49577;49.872;6.190;2023-04-22T11:22:41;98612.63;;;21.91;40.31
63447;BME280;49577;49.872;6.190;2023-04-22T11:25:07;98621.11;;;21.84;40.16
63447;BME280;49577;49.872;6.190;2023-04-22T11:27:35;98614.92;;;21.58;40.03
63447;BME280;49577;49.872;6.190;2023-04-22T11:32:32;98617.64;;;20.87;41.86
63447;BME280;49577;49.872;6.190;2023-04-22T11:35:05;98617.95;;;20.60;42.63
63447;BME280;49577;49.872;6.190;2023-04-22T11:37:42;98618.63;;;20.37;43.73
63447;BME280;49577;49.872;6.190;2023-04-22T11:40:09;98620.14;;;20.13;44.60
63447;BME280;49577;49.872;6.190;2023-04-22T11:42:36;98616.36;;;19.86;45.72
63447;BME280;49577;49.872;6.190;2023-04-22T11:45:01;98619.45;;;19.82;46.64
63447;BME280;49577;49.872;6.190;2023-04-22T11:47:30;98627.05;;;19.84;47.18
63447;BME280;49577;49.872;6.190;2023-04-22T11:49:57;98627.95;;;19.79;47.34
63447;BME280;49577;49.872;6.190;2023-04-22T11:52:24;98627.29;;;19.70;48.03
63447;BME280;49577;49.872;6.190;2023-04-22T11:54:50;98627.57;;;19.72;48.29
63447;BME280;49577;49.872;6.190;2023-04-22T11:57:16;98626.39;;;19.65;48.80
63447;BME280;49577;49.872;6.190;2023-04-22T11:59:42;98631.51;;;19.50;48.80
63447;BME280;49577;49.872;6.190;2023-04-22T12:02:08;98626.67;;;19.33;49.62
63447;BME280;49577;49.872;6.190;2023-04-22T12:04:36;98631.04;;;19.18;50.30
63447;BME280;49577;49.872;6.190;2023-04-22T12:07:02;98634.39;;;19.14;51.13
63447;BME280;49577;49.872;6.190;2023-04-22T12:09:27;98635.00;;;19.12;51.36
63447;BME280;49577;49.872;6.190;2023-04-22T12:11:53;98635.63;;;19.02;51.44
63447;BME280;49577;49.872;6.190;2023-04-22T12:14:19;98638.77;;;18.86;52.33
63447;BME280;49577;49.872;6.190;2023-04-22T12:16:44;98639.41;;;18.77;53.04
63447;BME280;49577;49.872;6.190;2023-04-22T12:19:09;98642.51;;;18.65;53.68
63447;BME280;49577;49.872;6.190;2023-04-22T12:21:35;98646.20;;;18.46;53.73
63447;BME280;49577;49.872;6.190;2023-04-22T12:24:02;98649.65;;;18.12;54.80
63447;BME280;49577;49.872;6.190;2023-04-22T12:26:32;98656.58;;;17.93;55.82
63447;BME280;49577;49.872;6.190;2023-04-22T12:28:59;98657.67;;;17.90;56.16
63447;BME280;49577;49.872;6.190;2023-04-22T12:31:25;98661.16;;;17.90;56.41
63447;BME280;49577;49.872;6.190;2023-04-22T12:33:51;98660.66;;;17.93;56.64
63447;BME280;49577;49.872;6.190;2023-04-22T12:36:17;98661.19;;;17.90;56.85
63447;BME280;49577;49.872;6.190;2023-04-22T12:38:45;98658.24;;;17.81;56.81
63447;BME280;49577;49.872;6.190;2023-04-22T12:41:10;98655.59;;;17.70;57.51
63447;BME280;49577;49.872;6.190;2023-04-22T12:43:36;98652.90;;;17.68;58.42
63447;BME280;49577;49.872;6.190;2023-04-22T12:46:02;98658.21;;;17.72;58.14
63447;BME280;49577;49.872;6.190;2023-04-22T12:48:28;98651.70;;;17.63;58.52
63447;BME280;49577;49.872;6.190;2023-04-22T12:50:53;98652.96;;;17.61;59.40
63447;BME280;49577;49.872;6.190;2023-04-22T12:53:20;98655.61;;;17.64;59.28
63447;BME280;49577;49.872;6.190;2023-04-22T12:55:45;98656.55;;;17.71;59.59
63447;BME280;49577;49.872;6.190;2023-04-22T12:58:10;98655.31;;;17.79;60.02
63447;BME280;49577;49.872;6.190;2023-04-22T13:00:36;98657.80;;;17.85;59.44
63447;BME280;49577;49.872;6.190;2023-04-22T13:03:01;98657.23;;;17.86;59.09
63447;BME280;49577;49.872;6.190;2023-04-22T13:05:26;98659.91;;;17.76;59.26
63447;BME280;49577;49.872;6.190;2023-04-22T13:07:52;98661.48;;;17.69;59.63
63447;BME280;49577;49.872;6.190;2023-04-22T13:10:17;98660.91;;;17.65;59.60